createdAt,value
2018-03-28T00:01:47.835Z,90.20
2018-03-28T00:04:14.374Z,89.60
2018-03-28T00:06:40.801Z,88.80
2018-03-28T00:09:07.237Z,88.90
2018-03-28T00:11:33.731Z,88.60
2018-03-28T00:14:00.155Z,88.90
2018-03-28T00:16:26.630Z,90.10
2018-03-28T00:18:53.053Z,88.60
2018-03-28T00:21:19.471Z,88.90
2018-03-28T00:23:46.640Z,88.90
2018-03-28T00:26:13.065Z,88.80
2018-03-28T00:28:39.522Z,89.70
2018-03-28T00:31:06.029Z,90.00
2018-03-28T00:33:32.473Z,90.00
2018-03-28T00:35:58.898Z,90.00
2018-03-28T00:38:25.342Z,88.80
2018-03-28T00:40:51.777Z,87.80
2018-03-28T00:43:18.207Z,87.10
2018-03-28T00:45:44.636Z,87.80
2018-03-28T00:48:11.059Z,88.50
2018-03-28T00:50:37.492Z,89.50
2018-03-28T00:53:03.923Z,89.20
2018-03-28T00:55:31.112Z,89.50
2018-03-28T00:57:57.515Z,89.50
2018-03-28T01:00:23.965Z,90.00
2018-03-28T01:02:50.416Z,90.00
2018-03-28T01:05:16.955Z,90.00
2018-03-28T01:07:43.430Z,89.70
2018-03-28T01:10:09.935Z,89.80
2018-03-28T01:12:37.195Z,90.70
2018-03-28T01:15:04.461Z,90.70
2018-03-28T01:17:31.700Z,91.40
2018-03-28T01:19:58.184Z,91.40
2018-03-28T01:22:24.744Z,91.60
2018-03-28T01:24:51.247Z,91.50
2018-03-28T01:27:17.783Z,92.10
2018-03-28T01:29:45.027Z,92.90
2018-03-28T01:32:12.259Z,92.90
2018-03-28T01:34:39.537Z,92.90
2018-03-28T01:37:06.768Z,93.10
2018-03-28T01:39:33.283Z,93.10
2018-03-28T01:42:00.542Z,93.40
2018-03-28T01:44:27.069Z,93.50
2018-03-28T01:46:53.556Z,93.90
2018-03-28T01:49:20.079Z,94.10
2018-03-28T01:51:46.631Z,93.90
2018-03-28T01:54:13.156Z,94.00
2018-03-28T01:56:39.632Z,94.30
2018-03-28T01:59:06.914Z,92.50
2018-03-28T02:01:33.412Z,92.50
2018-03-28T02:03:59.934Z,91.60
2018-03-28T02:06:26.424Z,91.40
2018-03-28T02:08:52.903Z,91.90
2018-03-28T02:11:19.404Z,91.30
2018-03-28T02:13:46.698Z,90.00
2018-03-28T02:16:13.186Z,90.00
2018-03-28T02:18:40.425Z,88.60
2018-03-28T02:21:11.078Z,88.50
2018-03-28T02:23:38.314Z,88.30
2018-03-28T02:26:04.849Z,88.30
2018-03-28T02:28:31.347Z,88.30
2018-03-28T02:30:57.843Z,90.00
2018-03-28T02:33:24.372Z,90.10
2018-03-28T02:35:51.658Z,90.70
2018-03-28T02:38:18.220Z,90.70
2018-03-28T02:40:44.729Z,90.70
2018-03-28T02:43:11.219Z,90.70
2018-03-28T02:45:37.708Z,90.90
2018-03-28T02:48:04.182Z,91.40
2018-03-28T02:50:30.654Z,91.60
2018-03-28T02:52:57.162Z,91.90
2018-03-28T02:55:23.691Z,92.10
2018-03-28T02:57:50.198Z,92.20
2018-03-28T03:00:16.712Z,92.40
2018-03-28T03:02:43.210Z,92.60
2018-03-28T03:05:09.709Z,92.80
2018-03-28T03:07:36.942Z,92.80
2018-03-28T03:10:03.446Z,92.70
2018-03-28T03:12:29.961Z,92.60
2018-03-28T03:14:57.203Z,92.70
2018-03-28T03:17:23.686Z,92.70
2018-03-28T03:19:50.239Z,93.00
2018-03-28T03:22:16.758Z,93.00
2018-03-28T03:24:43.246Z,92.90
2018-03-28T03:27:10.540Z,92.80
2018-03-28T03:29:37.026Z,92.90
2018-03-28T03:32:03.503Z,92.90
2018-03-28T03:34:30.050Z,93.00
2018-03-28T03:36:56.576Z,92.90
2018-03-28T03:39:23.069Z,92.80
2018-03-28T03:41:49.606Z,92.80
2018-03-28T03:44:16.085Z,92.50
2018-03-28T03:46:42.584Z,92.50
2018-03-28T03:49:09.069Z,92.70
2018-03-28T03:51:35.550Z,92.60
2018-03-28T03:54:02.036Z,92.70
2018-03-28T03:56:28.617Z,92.80
2018-03-28T03:58:55.133Z,92.80
2018-03-28T04:01:21.621Z,92.80
2018-03-28T04:03:48.160Z,92.80
2018-03-28T04:06:14.702Z,92.60
2018-03-28T04:08:41.307Z,92.60
2018-03-28T04:11:08.593Z,92.70
2018-03-28T04:13:35.082Z,92.70
2018-03-28T04:16:01.577Z,92.60
2018-03-28T04:18:28.054Z,92.50
2018-03-28T04:20:54.566Z,92.40
2018-03-28T04:23:21.113Z,92.20
2018-03-28T04:25:47.597Z,92.30
2018-03-28T04:28:14.090Z,92.40
2018-03-28T04:30:40.634Z,92.30
2018-03-28T04:33:07.132Z,92.20
2018-03-28T04:35:33.645Z,92.30
2018-03-28T04:38:00.118Z,92.30
2018-03-28T04:40:26.668Z,92.20
2018-03-28T04:42:53.186Z,92.10
2018-03-28T04:45:19.678Z,92.00
2018-03-28T04:47:46.232Z,92.10
2018-03-28T04:50:12.787Z,92.00
2018-03-28T04:52:39.342Z,91.90
2018-03-28T04:55:05.828Z,92.00
2018-03-28T04:57:32.313Z,91.80
2018-03-28T04:59:58.934Z,92.20
2018-03-28T05:02:25.456Z,92.50
2018-03-28T05:04:51.957Z,92.50
2018-03-28T05:07:18.413Z,92.70
2018-03-28T05:09:44.942Z,92.70
2018-03-28T05:12:11.419Z,92.60
2018-03-28T05:14:37.908Z,92.50
2018-03-28T05:17:04.418Z,92.40
2018-03-28T05:19:30.979Z,92.20
2018-03-28T05:21:57.502Z,92.40
2018-03-28T05:24:24.067Z,92.20
2018-03-28T05:26:50.551Z,92.40
2018-03-28T05:29:17.086Z,92.30
2018-03-28T05:31:43.566Z,92.30
2018-03-28T05:34:10.062Z,92.40
2018-03-28T05:36:37.294Z,92.00
2018-03-28T05:39:04.816Z,92.00
2018-03-28T05:41:31.360Z,92.00
2018-03-28T05:43:57.849Z,92.00
2018-03-28T05:46:25.118Z,91.80
2018-03-28T05:48:51.624Z,91.80
2018-03-28T05:51:18.870Z,92.00
2018-03-28T05:53:45.429Z,91.90
2018-03-28T05:56:12.013Z,91.90
2018-03-28T05:58:38.488Z,91.70
2018-03-28T06:01:05.009Z,91.70
2018-03-28T06:03:31.512Z,91.30
2018-03-28T06:05:58.118Z,90.80
2018-03-28T06:08:24.654Z,90.70
2018-03-28T06:10:51.150Z,90.60
2018-03-28T06:13:17.610Z,90.60
2018-03-28T06:15:44.836Z,89.70
2018-03-28T06:18:11.341Z,89.70
2018-03-28T06:20:37.887Z,89.80
2018-03-28T06:23:05.186Z,88.90
2018-03-28T06:25:32.432Z,88.60
2018-03-28T06:27:59.652Z,87.60
2018-03-28T06:30:26.258Z,87.40
2018-03-28T06:32:52.877Z,86.70
2018-03-28T06:35:19.391Z,86.00
2018-03-28T06:37:46.642Z,85.60
2018-03-28T06:40:13.910Z,85.20
2018-03-28T06:42:41.130Z,84.70
2018-03-28T06:45:08.377Z,85.00
2018-03-28T06:47:35.588Z,83.70
2018-03-28T06:50:02.070Z,83.70
2018-03-28T06:52:28.658Z,84.00
2018-03-28T06:54:55.149Z,82.60
2018-03-28T06:57:21.675Z,81.00
2018-03-28T06:59:48.177Z,81.30
2018-03-28T07:02:14.723Z,81.50
2018-03-28T07:04:41.280Z,80.90
2018-03-28T07:07:07.787Z,80.20
2018-03-28T07:09:34.307Z,78.80
2018-03-28T07:12:00.820Z,79.40
2018-03-28T07:14:27.418Z,77.70
2018-03-28T07:16:53.888Z,78.00
2018-03-28T07:19:21.304Z,73.30
2018-03-28T07:21:47.796Z,74.10
2018-03-28T07:24:14.367Z,71.60
2018-03-28T07:26:41.024Z,70.80
2018-03-28T07:29:07.513Z,68.70
2018-03-28T07:31:34.034Z,68.20
2018-03-28T07:34:00.559Z,68.10
2018-03-28T07:36:27.783Z,64.90
2018-03-28T07:38:54.253Z,64.80
2018-03-28T07:41:21.503Z,61.60
2018-03-28T07:43:48.842Z,60.60
2018-03-28T07:46:15.302Z,60.60
2018-03-28T07:48:41.777Z,62.20
2018-03-28T07:51:08.281Z,63.90
2018-03-28T07:53:35.003Z,65.80
2018-03-28T07:56:01.482Z,67.30
2018-03-28T07:58:28.000Z,68.70
2018-03-28T08:00:54.520Z,68.10
2018-03-28T08:03:21.044Z,68.00
2018-03-28T08:05:47.537Z,67.70
2018-03-28T08:08:14.665Z,68.70
2018-03-28T08:10:41.150Z,68.80
2018-03-28T08:13:07.621Z,67.70
2018-03-28T08:15:34.112Z,67.10
2018-03-28T08:18:00.600Z,64.80
2018-03-28T08:20:27.091Z,59.80
2018-03-28T08:22:54.472Z,59.30
2018-03-28T08:25:21.020Z,59.30
2018-03-28T08:27:47.537Z,61.90
2018-03-28T08:30:14.093Z,63.20
2018-03-28T08:32:40.582Z,59.40
2018-03-28T08:35:07.817Z,58.00
2018-03-28T08:37:34.312Z,57.90
2018-03-28T08:40:00.885Z,57.70
2018-03-28T08:42:27.393Z,57.70
2018-03-28T08:44:53.899Z,54.70
2018-03-28T08:47:20.420Z,56.50
2018-03-28T08:49:47.674Z,54.10
2018-03-28T08:52:14.945Z,53.90
2018-03-28T08:54:41.498Z,54.20
2018-03-28T08:57:08.010Z,50.30
2018-03-28T08:59:34.539Z,50.10
2018-03-28T09:02:01.784Z,50.90
2018-03-28T09:04:29.002Z,51.50
2018-03-28T09:06:55.523Z,51.40
2018-03-28T09:09:22.037Z,53.70
2018-03-28T09:11:48.579Z,54.20
2018-03-28T09:14:15.080Z,56.20
2018-03-28T09:16:42.312Z,57.90
2018-03-28T09:19:08.860Z,57.80
2018-03-28T09:21:35.359Z,58.20
2018-03-28T09:24:01.851Z,56.30
2018-03-28T09:26:28.389Z,56.00
2018-03-28T09:28:54.897Z,54.40
2018-03-28T09:31:21.369Z,53.20
2018-03-28T09:33:47.882Z,53.80
2018-03-28T09:36:15.090Z,54.80
2018-03-28T09:38:41.550Z,54.80
2018-03-28T09:41:08.052Z,55.60
2018-03-28T09:43:34.558Z,54.10
2018-03-28T09:46:01.111Z,53.30
2018-03-28T09:48:27.573Z,53.40
2018-03-28T09:50:54.080Z,53.80
2018-03-28T09:53:20.566Z,54.70
2018-03-28T09:55:47.803Z,56.70
2018-03-28T09:58:14.351Z,56.60
2018-03-28T10:00:40.951Z,57.50
2018-03-28T10:03:11.509Z,57.10
2018-03-28T10:05:38.026Z,56.00
2018-03-28T10:08:04.497Z,56.40
2018-03-28T10:10:31.711Z,54.60
2018-03-28T10:12:58.184Z,54.60
2018-03-28T10:15:25.392Z,55.90
2018-03-28T10:17:52.598Z,55.60
2018-03-28T10:20:19.073Z,55.60
2018-03-28T10:22:45.549Z,56.80
2018-03-28T10:25:12.787Z,55.90
2018-03-28T10:27:39.261Z,55.80
2018-03-28T10:30:05.764Z,53.90
2018-03-28T10:32:32.264Z,54.40
2018-03-28T10:34:58.797Z,54.00
2018-03-28T10:37:25.274Z,54.40
2018-03-28T10:39:51.760Z,55.30
2018-03-28T10:42:18.315Z,54.10
2018-03-28T10:44:44.800Z,54.40
2018-03-28T10:47:12.032Z,53.00
2018-03-28T10:49:39.262Z,54.20
2018-03-28T10:52:05.780Z,54.00
2018-03-28T10:54:32.302Z,50.80
2018-03-28T10:56:58.784Z,49.80
2018-03-28T10:59:25.307Z,49.20
2018-03-28T11:01:51.805Z,47.30
2018-03-28T11:04:18.374Z,48.10
2018-03-28T11:06:44.883Z,47.40
2018-03-28T11:09:11.376Z,47.30
2018-03-28T11:11:38.623Z,49.40
2018-03-28T11:14:05.847Z,48.50
2018-03-28T11:16:32.353Z,49.00
2018-03-28T11:18:58.837Z,49.20
2018-03-28T11:21:25.308Z,49.00
2018-03-28T11:23:51.810Z,48.70
2018-03-28T11:26:19.031Z,47.60
2018-03-28T11:28:46.255Z,46.00
2018-03-28T11:31:12.735Z,46.00
2018-03-28T11:33:39.228Z,46.50
2018-03-28T11:36:05.701Z,46.80
2018-03-28T11:38:32.214Z,47.80
2018-03-28T11:40:59.423Z,49.90
2018-03-28T11:43:26.659Z,49.10
2018-03-28T11:45:53.900Z,47.90
2018-03-28T11:48:20.420Z,47.10
2018-03-28T11:50:46.979Z,44.80
2018-03-28T11:53:13.445Z,45.00
2018-03-28T11:55:39.940Z,43.10
2018-03-28T11:58:06.448Z,42.30
2018-03-28T12:00:32.937Z,44.10
2018-03-28T12:02:59.408Z,44.20
2018-03-28T12:05:25.889Z,44.10
2018-03-28T12:07:52.415Z,42.40
2018-03-28T12:10:18.905Z,40.10
2018-03-28T12:12:45.360Z,40.00
2018-03-28T12:15:11.852Z,40.90
2018-03-28T12:17:38.361Z,39.40
2018-03-28T12:20:04.860Z,40.10
2018-03-28T12:22:31.340Z,42.50
2018-03-28T12:24:58.585Z,43.40
2018-03-28T12:27:25.808Z,44.90
2018-03-28T12:29:52.304Z,44.90
2018-03-28T12:32:18.849Z,42.90
2018-03-28T12:34:45.338Z,41.20
2018-03-28T12:37:12.580Z,39.80
2018-03-28T12:39:39.080Z,39.60
2018-03-28T12:42:05.590Z,39.50
2018-03-28T12:44:32.130Z,40.20
2018-03-28T12:46:58.648Z,41.40
2018-03-28T12:49:25.867Z,39.00
2018-03-28T12:51:52.411Z,38.80
2018-03-28T12:54:18.896Z,39.20
2018-03-28T12:56:45.377Z,41.10
2018-03-28T12:59:11.868Z,44.10
2018-03-28T13:01:38.368Z,40.90
2018-03-28T13:04:05.606Z,43.90
2018-03-28T13:06:32.080Z,43.70
2018-03-28T13:08:58.612Z,42.20
2018-03-28T13:11:25.098Z,44.10
2018-03-28T13:13:53.289Z,44.60
2018-03-28T13:16:19.793Z,44.70
2018-03-28T13:18:46.254Z,43.20
2018-03-28T13:21:12.737Z,44.50
2018-03-28T13:23:39.220Z,44.00
2018-03-28T13:26:05.712Z,44.60
2018-03-28T13:28:32.208Z,46.60
2018-03-28T13:30:59.488Z,47.40
2018-03-28T13:33:25.952Z,47.40
2018-03-28T13:35:52.466Z,47.30
2018-03-28T13:38:18.945Z,47.40
2018-03-28T13:40:45.462Z,47.90
2018-03-28T13:43:11.949Z,49.20
2018-03-28T13:45:38.485Z,48.90
2018-03-28T13:48:05.692Z,49.40
2018-03-28T13:50:32.217Z,49.30
2018-03-28T13:52:58.715Z,48.80
2018-03-28T13:55:25.251Z,49.30
2018-03-28T13:57:51.743Z,48.40
2018-03-28T14:00:18.242Z,48.90
2018-03-28T14:02:44.766Z,48.40
2018-03-28T14:05:11.247Z,47.50
2018-03-28T14:07:37.729Z,47.90
2018-03-28T14:10:04.226Z,48.30
2018-03-28T14:12:30.719Z,46.80
2018-03-28T14:14:57.184Z,47.90
2018-03-28T14:17:23.654Z,46.70
2018-03-28T14:19:50.196Z,47.90
2018-03-28T14:22:16.708Z,48.30
2018-03-28T14:24:43.943Z,50.80
2018-03-28T14:27:10.467Z,50.80
2018-03-28T14:29:37.676Z,52.50
2018-03-28T14:32:04.140Z,52.50
2018-03-28T14:34:30.705Z,53.10
2018-03-28T14:36:57.178Z,53.50
2018-03-28T14:39:23.692Z,53.40
2018-03-28T14:41:51.064Z,54.80
2018-03-28T14:44:17.586Z,55.20
2018-03-28T14:46:44.825Z,55.40
2018-03-28T14:49:11.333Z,55.50
2018-03-28T14:51:37.855Z,56.00
2018-03-28T14:54:04.338Z,56.40
2018-03-28T14:56:32.025Z,57.80
2018-03-28T14:58:58.528Z,57.80
2018-03-28T15:01:25.771Z,57.70
2018-03-28T15:03:52.313Z,57.60
2018-03-28T15:06:18.833Z,57.20
2018-03-28T15:08:45.324Z,57.70
2018-03-28T15:11:11.845Z,58.00
2018-03-28T15:13:39.111Z,58.40
2018-03-28T15:16:05.616Z,58.40
2018-03-28T15:18:32.845Z,58.50
2018-03-28T15:20:59.347Z,58.50
2018-03-28T15:23:25.845Z,58.70
2018-03-28T15:25:53.061Z,59.10
2018-03-28T15:28:20.292Z,59.00
2018-03-28T15:30:46.833Z,58.90
2018-03-28T15:33:13.312Z,59.10
2018-03-28T15:35:39.765Z,59.50
2018-03-28T15:38:06.271Z,59.70
2018-03-28T15:40:32.736Z,60.20
2018-03-28T15:42:59.210Z,60.10
2018-03-28T15:45:25.703Z,60.20
2018-03-28T15:47:52.185Z,59.90
2018-03-28T15:50:18.701Z,60.70
2018-03-28T15:52:45.190Z,60.70
2018-03-28T15:55:12.427Z,61.60
2018-03-28T15:57:38.926Z,61.50
2018-03-28T16:00:05.418Z,61.80
2018-03-28T16:02:32.653Z,61.70
2018-03-28T16:04:59.157Z,61.80
2018-03-28T16:07:25.738Z,61.70
2018-03-28T16:09:52.970Z,62.40
2018-03-28T16:12:22.111Z,62.50
2018-03-28T16:14:48.588Z,62.50
2018-03-28T16:17:15.066Z,62.70
2018-03-28T16:19:41.639Z,63.10
2018-03-28T16:22:08.137Z,62.30
2018-03-28T16:24:34.699Z,62.70
2018-03-28T16:27:01.194Z,62.90
2018-03-28T16:29:28.421Z,62.70
2018-03-28T16:31:54.905Z,62.70
2018-03-28T16:34:21.376Z,63.40
2018-03-28T16:36:48.729Z,63.50
2018-03-28T16:39:15.215Z,63.40
2018-03-28T16:41:41.738Z,63.40
2018-03-28T16:44:08.288Z,63.70
2018-03-28T16:46:34.799Z,64.00
2018-03-28T16:49:01.266Z,64.00
2018-03-28T16:51:27.758Z,63.90
2018-03-28T16:53:54.273Z,63.70
2018-03-28T16:56:21.499Z,64.20
2018-03-28T16:58:47.995Z,64.20
2018-03-28T17:01:14.601Z,64.10
2018-03-28T17:03:41.098Z,64.40
2018-03-28T17:06:07.617Z,64.30
2018-03-28T17:08:34.142Z,64.60
2018-03-28T17:11:01.418Z,65.10
2018-03-28T17:13:27.906Z,65.20
2018-03-28T17:15:54.417Z,65.10
2018-03-28T17:18:20.883Z,64.80
2018-03-28T17:20:47.387Z,65.30
2018-03-28T17:23:13.923Z,65.50
2018-03-28T17:25:40.451Z,65.20
2018-03-28T17:28:07.761Z,65.30
2018-03-28T17:30:35.000Z,66.10
2018-03-28T17:33:02.502Z,66.20
2018-03-28T17:35:29.010Z,66.00
2018-03-28T17:37:56.281Z,66.50
2018-03-28T17:40:22.787Z,66.30
2018-03-28T17:42:49.297Z,66.20
2018-03-28T17:45:15.775Z,66.50
2018-03-28T17:47:43.019Z,66.40
2018-03-28T17:50:09.508Z,66.40
2018-03-28T17:52:35.995Z,66.40
2018-03-28T17:55:03.234Z,67.40
2018-03-28T17:57:29.727Z,67.40
2018-03-28T17:59:56.883Z,66.80
2018-03-28T18:02:23.387Z,67.20
2018-03-28T18:04:49.862Z,66.90
2018-03-28T18:07:16.352Z,68.10
2018-03-28T18:09:42.838Z,69.50
2018-03-28T18:12:09.381Z,70.10
2018-03-28T18:14:35.877Z,71.20
2018-03-28T18:17:02.381Z,71.70
2018-03-28T18:19:29.306Z,71.70
2018-03-28T18:21:55.818Z,72.10
2018-03-28T18:24:22.351Z,72.60
2018-03-28T18:26:48.898Z,72.90
2018-03-28T18:29:15.418Z,73.30
2018-03-28T18:31:41.939Z,73.40
2018-03-28T18:34:08.458Z,74.00
2018-03-28T18:36:34.973Z,73.70
2018-03-28T18:39:02.311Z,74.30
2018-03-28T18:41:28.867Z,74.30
2018-03-28T18:43:56.169Z,74.60
2018-03-28T18:46:22.818Z,74.60
2018-03-28T18:48:49.322Z,75.90
2018-03-28T18:51:15.802Z,76.10
2018-03-28T18:53:42.385Z,76.30
2018-03-28T18:56:08.926Z,76.40
2018-03-28T18:58:35.414Z,76.40
2018-03-28T19:01:01.931Z,76.60
2018-03-28T19:03:28.520Z,76.50
2018-03-28T19:05:55.030Z,76.20
2018-03-28T19:08:21.520Z,76.50
2018-03-28T19:10:48.012Z,77.30
2018-03-28T19:13:15.222Z,78.30
2018-03-28T19:15:41.713Z,78.20
2018-03-28T19:18:08.226Z,78.50
2018-03-28T19:20:34.706Z,78.90
2018-03-28T19:23:01.216Z,79.00
2018-03-28T19:25:27.742Z,79.10
2018-03-28T19:27:54.360Z,79.30
2018-03-28T19:30:20.921Z,78.80
2018-03-28T19:32:48.131Z,79.00
2018-03-28T19:35:14.612Z,79.00
2018-03-28T19:37:41.128Z,79.40
2018-03-28T19:40:07.652Z,79.80
2018-03-28T19:42:35.174Z,79.70
2018-03-28T19:45:01.685Z,79.40
2018-03-28T19:47:28.217Z,79.60
2018-03-28T19:49:54.687Z,80.00
2018-03-28T19:52:21.166Z,80.00
2018-03-28T19:54:48.374Z,80.20
2018-03-28T19:57:14.872Z,80.10
2018-03-28T19:59:41.378Z,80.50
2018-03-28T20:02:07.858Z,80.50
2018-03-28T20:04:34.492Z,80.50
2018-03-28T20:07:00.971Z,80.80
2018-03-28T20:09:27.500Z,80.60
2018-03-28T20:12:03.193Z,80.20
2018-03-28T20:14:29.895Z,80.10
2018-03-28T20:16:56.557Z,80.10
2018-03-28T20:19:24.146Z,80.60
2018-03-28T20:21:50.640Z,80.60
2018-03-28T20:24:17.238Z,80.60
2018-03-28T20:26:46.408Z,80.30
2018-03-28T20:29:13.301Z,80.50
2018-03-28T20:31:39.948Z,80.70
2018-03-28T20:34:10.985Z,81.00
2018-03-28T20:36:39.271Z,81.00
2018-03-28T20:39:05.870Z,81.00
2018-03-28T20:41:32.520Z,81.40
2018-03-28T20:44:00.005Z,81.60
2018-03-28T20:46:26.504Z,81.50
2018-03-28T20:48:53.084Z,81.60
2018-03-28T20:51:19.547Z,81.10
2018-03-28T20:53:46.074Z,81.00
2018-03-28T20:56:12.603Z,81.00
2018-03-28T20:58:39.156Z,80.50
2018-03-28T21:01:05.649Z,81.00
2018-03-28T21:03:32.138Z,81.40
2018-03-28T21:05:58.634Z,81.20
2018-03-28T21:08:25.888Z,80.80
2018-03-28T21:10:53.139Z,80.60
2018-03-28T21:13:19.645Z,80.60
2018-03-28T21:15:46.190Z,80.50
2018-03-28T21:18:12.713Z,80.30
2018-03-28T21:20:39.266Z,80.60
2018-03-28T21:23:05.874Z,80.20
2018-03-28T21:25:32.417Z,81.00
2018-03-28T21:27:58.906Z,81.10
2018-03-28T21:30:26.211Z,81.70
2018-03-28T21:32:52.778Z,81.60
2018-03-28T21:35:19.318Z,81.60
2018-03-28T21:37:45.801Z,81.80
2018-03-28T21:40:12.309Z,82.00
2018-03-28T21:42:38.815Z,82.00
2018-03-28T21:45:06.117Z,81.60
2018-03-28T21:47:32.630Z,81.60
2018-03-28T21:49:59.667Z,82.10
2018-03-28T21:52:26.896Z,81.70
2018-03-28T21:54:53.395Z,81.60
2018-03-28T21:57:19.945Z,82.10
2018-03-28T21:59:46.449Z,82.20
2018-03-28T22:02:13.066Z,82.30
2018-03-28T22:04:40.311Z,82.70
2018-03-28T22:07:07.588Z,82.80
2018-03-28T22:09:34.828Z,82.70
2018-03-28T22:12:02.177Z,82.70
2018-03-28T22:14:28.705Z,82.60
2018-03-28T22:16:55.970Z,83.00
2018-03-28T22:19:23.206Z,82.90
2018-03-28T22:21:50.415Z,82.90
2018-03-28T22:24:16.939Z,83.20
2018-03-28T22:26:43.465Z,83.40
2018-03-28T22:29:09.951Z,83.20
2018-03-28T22:31:36.442Z,83.20
2018-03-28T22:34:03.035Z,83.50
2018-03-28T22:36:30.324Z,84.40
2018-03-28T22:38:56.904Z,84.30
2018-03-28T22:41:23.410Z,84.20
2018-03-28T22:43:49.896Z,84.70
2018-03-28T22:46:16.383Z,83.40
2018-03-28T22:48:42.954Z,82.70
2018-03-28T22:51:09.448Z,83.60
2018-03-28T22:53:35.933Z,83.30
2018-03-28T22:56:02.440Z,83.50
2018-03-28T22:58:28.946Z,83.60
2018-03-28T23:00:55.415Z,84.20
2018-03-28T23:03:21.908Z,84.30
2018-03-28T23:05:48.422Z,83.90
2018-03-28T23:08:14.923Z,83.70
2018-03-28T23:10:41.411Z,83.90
2018-03-28T23:13:07.893Z,84.10
2018-03-28T23:15:34.446Z,83.90
2018-03-28T23:18:00.968Z,83.70
2018-03-28T23:20:27.447Z,83.90
2018-03-28T23:22:53.950Z,84.40
2018-03-28T23:25:21.249Z,84.40
2018-03-28T23:27:47.810Z,84.30
2018-03-28T23:30:14.282Z,84.20
2018-03-28T23:32:41.541Z,83.30
2018-03-28T23:35:08.775Z,82.90
2018-03-28T23:37:35.269Z,83.80
2018-03-28T23:40:01.754Z,83.00
2018-03-28T23:42:28.312Z,83.50
2018-03-28T23:44:54.864Z,83.70
2018-03-28T23:47:21.375Z,83.70
2018-03-28T23:49:48.678Z,84.50
2018-03-28T23:52:15.183Z,84.50
2018-03-28T23:54:41.695Z,84.50
2018-03-28T23:57:08.970Z,84.30
2018-03-28T23:59:35.487Z,84.20
